createdAt,value
2023-04-20T00:00:59.972Z,3.05
2023-04-20T00:03:27.676Z,3.53
2023-04-20T00:05:54.822Z,3.63
2023-04-20T00:08:21.544Z,3.10
2023-04-20T00:10:48.348Z,3.53
2023-04-20T00:13:14.968Z,3.58
2023-04-20T00:15:41.722Z,3.90
2023-04-20T00:18:08.625Z,3.55
2023-04-20T00:20:35.752Z,4.15
2023-04-20T00:23:03.010Z,3.13
2023-04-20T00:25:30.730Z,3.90
2023-04-20T00:27:58.215Z,3.97
2023-04-20T00:30:25.228Z,4.15
2023-04-20T00:32:52.033Z,5.30
2023-04-20T00:35:18.684Z,4.30
2023-04-20T00:37:45.380Z,4.72
2023-04-20T00:40:12.340Z,4.60
2023-04-20T00:42:40.683Z,5.50
2023-04-20T00:45:08.043Z,5.40
2023-04-20T00:47:34.803Z,5.10
2023-04-20T00:50:02.643Z,6.07
2023-04-20T00:52:31.194Z,5.75
2023-04-20T00:54:58.617Z,4.75
2023-04-20T00:57:28.048Z,5.82
2023-04-20T00:59:54.579Z,5.10
2023-04-20T01:02:22.690Z,5.22
2023-04-20T01:04:49.694Z,4.57
2023-04-20T01:07:16.444Z,5.10
2023-04-20T01:09:43.358Z,5.05
2023-04-20T01:12:11.635Z,6.35
2023-04-20T01:14:38.572Z,5.47
2023-04-20T01:17:06.092Z,6.15
2023-04-20T01:19:33.600Z,6.20
2023-04-20T01:22:02.061Z,5.75
2023-04-20T01:24:29.027Z,5.85
2023-04-20T01:26:56.478Z,5.78
2023-04-20T01:29:23.102Z,6.13
2023-04-20T01:31:49.882Z,6.38
2023-04-20T01:34:19.653Z,6.75
2023-04-20T01:36:46.457Z,6.47
2023-04-20T01:39:13.181Z,7.15
2023-04-20T01:41:40.571Z,7.13
2023-04-20T01:44:07.102Z,6.72
2023-04-20T01:46:37.816Z,7.18
2023-04-20T01:49:08.093Z,7.05
2023-04-20T01:51:35.331Z,7.57
2023-04-20T01:54:03.019Z,6.47
2023-04-20T01:56:29.617Z,7.32
2023-04-20T01:58:58.275Z,7.38
2023-04-20T02:01:26.450Z,7.18
2023-04-20T02:03:53.465Z,7.65
2023-04-20T02:06:21.272Z,7.50
2023-04-20T02:08:48.019Z,7.97
2023-04-20T02:11:15.167Z,8.50
2023-04-20T02:13:41.715Z,7.72
2023-04-20T02:16:08.356Z,8.27
2023-04-20T02:18:35.125Z,8.82
2023-04-20T02:21:01.804Z,8.50
2023-04-20T02:23:28.450Z,8.35
2023-04-20T02:25:55.555Z,8.75
2023-04-20T02:28:22.159Z,7.97
2023-04-20T02:30:49.155Z,8.18
2023-04-20T02:33:15.870Z,7.55
2023-04-20T02:35:42.445Z,7.18
2023-04-20T02:38:11.007Z,7.75
2023-04-20T02:40:38.831Z,7.20
2023-04-20T02:43:05.937Z,7.35
2023-04-20T02:45:33.554Z,7.60
2023-04-20T02:48:00.636Z,6.55
2023-04-20T02:50:30.548Z,6.32
2023-04-20T02:53:23.440Z,5.60
2023-04-20T02:56:09.601Z,5.05
2023-04-20T02:58:42.755Z,5.20
2023-04-20T03:01:16.651Z,5.05
2023-04-20T03:03:45.333Z,5.50
2023-04-20T03:06:12.553Z,3.95
2023-04-20T03:08:42.012Z,4.63
2023-04-20T03:11:28.942Z,4.38
2023-04-20T03:13:56.472Z,3.90
2023-04-20T03:16:23.032Z,4.30
2023-04-20T03:18:52.330Z,3.83
2023-04-20T03:21:18.922Z,2.80
2023-04-20T03:23:45.908Z,3.15
2023-04-20T03:26:13.570Z,3.22
2023-04-20T03:29:02.936Z,3.10
2023-04-20T03:31:29.872Z,2.90
2023-04-20T03:33:57.759Z,3.00
2023-04-20T03:36:24.609Z,2.67
2023-04-20T03:38:51.324Z,2.28
2023-04-20T03:41:18.073Z,2.20
2023-04-20T03:43:44.698Z,2.60
2023-04-20T03:46:11.262Z,2.40
2023-04-20T03:48:38.586Z,2.75
2023-04-20T03:51:05.568Z,2.53
2023-04-20T03:53:32.160Z,2.25
2023-04-20T03:55:59.941Z,2.08
2023-04-20T03:58:27.025Z,2.75
2023-04-20T04:01:07.730Z,2.20
2023-04-20T04:03:37.029Z,2.33
2023-04-20T04:06:04.677Z,2.40
2023-04-20T04:08:32.833Z,2.35
2023-04-20T04:11:00.689Z,2.40
2023-04-20T04:13:27.779Z,2.45
2023-04-20T04:15:54.562Z,2.58
2023-04-20T04:18:22.542Z,3.08
2023-04-20T04:20:50.172Z,3.58
2023-04-20T04:23:17.130Z,2.45
2023-04-20T04:25:50.035Z,2.00
2023-04-20T04:28:21.712Z,2.78
2023-04-20T04:31:02.032Z,2.22
2023-04-20T04:33:29.570Z,2.17
2023-04-20T04:35:57.479Z,2.00
2023-04-20T04:38:24.392Z,2.65
2023-04-20T04:40:52.517Z,1.77
2023-04-20T04:43:20.255Z,2.22
2023-04-20T04:45:58.585Z,2.40
2023-04-20T04:48:26.095Z,2.40
2023-04-20T04:50:52.631Z,2.67
2023-04-20T04:53:19.450Z,2.38
2023-04-20T04:55:46.481Z,2.10
2023-04-20T04:58:13.301Z,2.17
2023-04-20T05:00:40.345Z,2.15
2023-04-20T05:03:07.045Z,2.40
2023-04-20T05:05:33.786Z,2.63
2023-04-20T05:08:00.486Z,2.17
2023-04-20T05:10:27.411Z,1.77
2023-04-20T05:12:54.084Z,2.58
2023-04-20T05:15:20.728Z,1.88
2023-04-20T05:17:49.616Z,2.58
2023-04-20T05:20:16.823Z,3.03
2023-04-20T05:22:43.723Z,2.65
2023-04-20T05:25:13.259Z,3.00
2023-04-20T05:27:40.789Z,2.67
2023-04-20T05:30:19.447Z,3.10
2023-04-20T05:32:51.173Z,2.42
2023-04-20T05:35:19.187Z,2.75
2023-04-20T05:37:47.302Z,2.38
2023-04-20T05:40:15.293Z,2.83
2023-04-20T05:42:41.914Z,2.38
2023-04-20T05:45:09.379Z,2.42
2023-04-20T05:47:36.205Z,2.75
2023-04-20T05:50:02.932Z,2.33
2023-04-20T05:52:29.570Z,2.42
2023-04-20T05:54:58.420Z,2.47
2023-04-20T05:57:25.135Z,2.38
2023-04-20T05:59:51.950Z,1.80
2023-04-20T06:02:18.581Z,2.25
2023-04-20T06:04:45.706Z,2.03
2023-04-20T06:07:12.651Z,2.28
2023-04-20T06:09:39.397Z,2.22
2023-04-20T06:12:06.262Z,2.45
2023-04-20T06:14:32.966Z,2.50
2023-04-20T06:16:59.509Z,2.42
2023-04-20T06:19:26.327Z,2.50
2023-04-20T06:21:52.908Z,2.25
2023-04-20T06:24:19.636Z,2.10
2023-04-20T06:26:46.232Z,1.90
2023-04-20T06:29:12.856Z,1.80
2023-04-20T06:31:39.984Z,2.17
2023-04-20T06:34:06.790Z,2.38
2023-04-20T06:36:33.535Z,2.55
2023-04-20T06:39:00.277Z,2.25
2023-04-20T06:41:27.101Z,2.00
2023-04-20T06:43:53.887Z,1.77
2023-04-20T06:46:20.460Z,1.73
2023-04-20T06:48:47.261Z,1.73
2023-04-20T06:51:14.220Z,1.70
2023-04-20T06:53:41.034Z,1.50
2023-04-20T06:56:08.010Z,1.98
2023-04-20T06:58:34.667Z,1.40
2023-04-20T07:01:02.185Z,1.70
2023-04-20T07:03:28.969Z,2.00
2023-04-20T07:05:55.887Z,1.80
2023-04-20T07:08:22.679Z,1.58
2023-04-20T07:10:49.308Z,1.77
2023-04-20T07:13:16.147Z,1.55
2023-04-20T07:15:45.206Z,1.98
2023-04-20T07:18:12.141Z,2.03
2023-04-20T07:20:39.255Z,1.63
2023-04-20T07:23:05.802Z,1.58
2023-04-20T07:25:32.921Z,1.75
2023-04-20T07:27:59.772Z,1.65
2023-04-20T07:30:27.027Z,1.48
2023-04-20T07:32:53.899Z,1.70
2023-04-20T07:35:20.740Z,1.55
2023-04-20T07:37:47.489Z,2.00
2023-04-20T07:40:14.209Z,1.70
2023-04-20T07:42:41.260Z,1.73
2023-04-20T07:45:08.552Z,1.40
2023-04-20T07:47:35.932Z,1.90
2023-04-20T07:50:06.623Z,1.70
2023-04-20T07:52:33.578Z,1.33
2023-04-20T07:55:00.325Z,1.58
2023-04-20T07:57:28.417Z,1.70
2023-04-20T07:59:55.099Z,1.90
2023-04-20T08:02:22.129Z,1.65
2023-04-20T08:04:49.855Z,1.52
2023-04-20T08:07:17.726Z,1.10
2023-04-20T08:09:44.347Z,1.15
2023-04-20T08:12:11.274Z,1.38
2023-04-20T08:14:38.290Z,1.20
2023-04-20T08:17:05.194Z,1.20
2023-04-20T08:19:31.820Z,1.40
2023-04-20T08:21:59.798Z,1.35
2023-04-20T08:24:28.189Z,1.50
2023-04-20T08:26:54.974Z,1.10
2023-04-20T08:29:21.765Z,1.80
2023-04-20T08:31:50.694Z,2.08
2023-04-20T08:34:18.972Z,1.70
2023-04-20T08:36:46.363Z,1.42
2023-04-20T08:39:15.523Z,1.38
2023-04-20T08:41:42.186Z,1.52
2023-04-20T08:44:08.894Z,1.50
2023-04-20T08:46:35.962Z,1.38
2023-04-20T08:49:04.009Z,1.70
2023-04-20T08:51:33.867Z,1.88
2023-04-20T08:54:07.818Z,1.83
2023-04-20T08:56:38.937Z,1.80
2023-04-20T08:59:09.439Z,1.85
2023-04-20T09:01:37.640Z,2.70
2023-04-20T09:04:27.141Z,2.65
2023-04-20T09:06:56.118Z,3.28
2023-04-20T09:09:24.661Z,2.80
2023-04-20T09:12:02.568Z,3.00
2023-04-20T09:14:29.863Z,2.70
2023-04-20T09:17:02.043Z,3.40
2023-04-20T09:19:30.203Z,3.20
2023-04-20T09:21:58.665Z,3.83
2023-04-20T09:24:37.551Z,2.60
2023-04-20T09:27:19.016Z,2.72
2023-04-20T09:29:57.961Z,3.13
2023-04-20T09:32:25.712Z,3.22
2023-04-20T09:34:52.329Z,3.28
2023-04-20T09:37:19.215Z,3.45
2023-04-20T09:39:46.974Z,3.35
2023-04-20T09:42:15.646Z,3.15
2023-04-20T09:44:45.983Z,3.30
2023-04-20T09:47:17.219Z,1.92
2023-04-20T09:49:47.611Z,2.92
2023-04-20T09:52:18.744Z,3.50
2023-04-20T09:54:45.955Z,3.75
2023-04-20T09:57:13.757Z,2.97
2023-04-20T09:59:44.418Z,2.75
2023-04-20T10:02:12.623Z,3.55
2023-04-20T10:04:52.808Z,3.30
2023-04-20T10:07:31.671Z,3.63
2023-04-20T10:10:12.792Z,4.03
2023-04-20T10:12:49.416Z,4.47
2023-04-20T10:15:16.862Z,4.13
2023-04-20T10:17:47.194Z,4.30
2023-04-20T10:20:26.238Z,4.75
2023-04-20T10:22:54.145Z,4.05
2023-04-20T10:25:24.493Z,3.42
2023-04-20T10:28:04.501Z,3.33
2023-04-20T10:30:32.787Z,3.05
2023-04-20T10:33:18.166Z,3.45
2023-04-20T10:35:54.703Z,2.80
2023-04-20T10:38:36.153Z,3.13
2023-04-20T10:41:10.402Z,2.83
2023-04-20T10:43:43.368Z,3.17
2023-04-20T10:46:22.162Z,3.30
2023-04-20T10:49:02.937Z,3.67
2023-04-20T10:51:29.949Z,3.67
2023-04-20T10:54:07.934Z,3.53
2023-04-20T10:56:42.524Z,3.25
2023-04-20T10:59:11.640Z,2.92
2023-04-20T11:01:38.880Z,2.35
2023-04-20T11:04:07.290Z,2.80
2023-04-20T11:06:35.051Z,2.10
2023-04-20T11:09:01.947Z,2.28
2023-04-20T11:11:28.742Z,2.67
2023-04-20T11:14:09.406Z,3.25
2023-04-20T11:16:49.696Z,2.83
2023-04-20T11:19:26.504Z,3.67
2023-04-20T11:21:53.351Z,3.15
2023-04-20T11:24:21.719Z,3.45
2023-04-20T11:26:54.052Z,3.10
2023-04-20T11:29:38.862Z,3.08
2023-04-20T11:32:07.787Z,2.85
2023-04-20T11:34:35.974Z,2.90
2023-04-20T11:37:11.631Z,3.25
2023-04-20T11:39:38.622Z,2.65
2023-04-20T11:42:06.340Z,3.28
2023-04-20T11:44:33.968Z,4.30
2023-04-20T11:47:01.914Z,3.58
2023-04-20T11:49:29.113Z,3.80
2023-04-20T11:51:55.675Z,3.70
2023-04-20T11:54:24.174Z,3.58
2023-04-20T11:56:51.503Z,3.58
2023-04-20T11:59:20.064Z,3.67
2023-04-20T12:01:48.017Z,3.28
2023-04-20T12:04:15.801Z,2.88
2023-04-20T12:06:42.988Z,2.92
2023-04-20T12:09:09.682Z,3.08
2023-04-20T12:11:36.391Z,3.00
2023-04-20T12:14:04.581Z,3.17
2023-04-20T12:16:31.735Z,3.10
2023-04-20T12:18:58.492Z,3.22
2023-04-20T12:21:25.103Z,4.07
2023-04-20T12:23:51.640Z,3.53
2023-04-20T12:26:18.416Z,3.10
2023-04-20T12:28:48.107Z,4.75
2023-04-20T12:31:14.824Z,2.80
2023-04-20T12:33:41.365Z,2.92
2023-04-20T12:36:08.390Z,2.40
2023-04-20T12:38:34.960Z,2.08
2023-04-20T12:41:02.005Z,2.08
2023-04-20T12:43:29.354Z,2.03
2023-04-20T12:45:56.016Z,2.35
2023-04-20T12:48:22.848Z,2.40
2023-04-20T12:50:50.763Z,2.60
2023-04-20T12:53:17.691Z,3.10
2023-04-20T12:55:44.445Z,2.63
2023-04-20T12:58:11.241Z,2.63
2023-04-20T13:00:37.995Z,2.83
2023-04-20T13:03:04.810Z,3.67
2023-04-20T13:05:31.792Z,2.75
2023-04-20T13:07:58.360Z,3.00
2023-04-20T13:10:25.224Z,2.90
2023-04-20T13:12:52.530Z,3.00
2023-04-20T13:15:32.007Z,2.78
2023-04-20T13:18:05.522Z,2.35
2023-04-20T13:20:32.675Z,2.45
2023-04-20T13:23:01.115Z,2.80
2023-04-20T13:25:30.011Z,2.42
2023-04-20T13:27:56.998Z,2.33
2023-04-20T13:30:24.598Z,2.35
2023-04-20T13:32:51.974Z,2.70
2023-04-20T13:35:19.230Z,1.95
2023-04-20T13:37:46.178Z,1.92
2023-04-20T13:40:12.997Z,2.10
2023-04-20T13:42:39.618Z,2.25
2023-04-20T13:45:06.948Z,2.08
2023-04-20T13:47:33.646Z,2.33
2023-04-20T13:50:00.264Z,2.33
2023-04-20T13:52:26.943Z,2.35
2023-04-20T13:54:53.534Z,2.83
2023-04-20T13:57:20.276Z,2.63
2023-04-20T13:59:46.773Z,1.80
2023-04-20T14:02:13.665Z,2.72
2023-04-20T14:04:40.298Z,2.75
2023-04-20T14:07:07.082Z,2.22
2023-04-20T14:09:33.741Z,2.60
2023-04-20T14:12:04.473Z,2.58
2023-04-20T14:14:31.705Z,2.67
2023-04-20T14:16:58.261Z,3.00
2023-04-20T14:19:24.810Z,3.10
2023-04-20T14:21:51.738Z,3.05
2023-04-20T14:24:18.470Z,2.50
2023-04-20T14:26:45.392Z,2.50
2023-04-20T14:29:12.254Z,2.45
2023-04-20T14:31:38.918Z,2.88
2023-04-20T14:34:05.542Z,2.50
2023-04-20T14:36:33.341Z,2.65
2023-04-20T14:38:59.989Z,2.45
2023-04-20T14:41:26.663Z,2.78
2023-04-20T14:43:53.457Z,2.92
2023-04-20T14:46:20.288Z,2.97
2023-04-20T14:48:47.192Z,3.22
2023-04-20T14:51:14.046Z,3.20
2023-04-20T14:53:40.597Z,2.85
2023-04-20T14:56:07.463Z,3.25
2023-04-20T14:58:34.525Z,2.75
2023-04-20T15:01:01.569Z,3.65
2023-04-20T15:03:28.278Z,3.78
2023-04-20T15:06:01.509Z,2.67
2023-04-20T15:08:28.413Z,2.50
2023-04-20T15:10:57.820Z,3.85
2023-04-20T15:13:25.064Z,3.40
2023-04-20T15:15:54.736Z,3.30
2023-04-20T15:18:21.702Z,3.13
2023-04-20T15:20:50.318Z,2.83
2023-04-20T15:23:17.137Z,3.40
2023-04-20T15:25:43.838Z,2.90
2023-04-20T15:28:11.253Z,2.75
2023-04-20T15:30:37.857Z,3.22
2023-04-20T15:33:05.548Z,3.38
2023-04-20T15:35:33.445Z,3.40
2023-04-20T15:38:00.833Z,3.10
2023-04-20T15:40:27.715Z,3.53
2023-04-20T15:42:58.884Z,3.63
2023-04-20T15:45:25.516Z,3.83
2023-04-20T15:47:52.215Z,4.13
2023-04-20T15:50:19.070Z,4.18
2023-04-20T15:52:49.703Z,5.38
2023-04-20T15:55:16.824Z,5.50
2023-04-20T15:57:44.699Z,4.88
2023-04-20T16:00:12.456Z,5.63
2023-04-20T16:02:40.418Z,5.35
2023-04-20T16:05:07.785Z,4.10
2023-04-20T16:07:34.483Z,5.05
2023-04-20T16:10:02.162Z,5.60
2023-04-20T16:12:29.087Z,4.85
2023-04-20T16:14:57.122Z,6.00
2023-04-20T16:17:24.006Z,5.03
2023-04-20T16:19:50.957Z,5.03
2023-04-20T16:22:18.007Z,4.65
2023-04-20T16:24:44.987Z,4.03
2023-04-20T16:27:11.708Z,4.50
2023-04-20T16:29:38.583Z,4.60
2023-04-20T16:32:05.907Z,4.80
2023-04-20T16:34:32.556Z,4.13
2023-04-20T16:36:59.722Z,5.10
2023-04-20T16:39:26.626Z,3.80
2023-04-20T16:41:53.277Z,4.85
2023-04-20T16:44:20.354Z,4.68
2023-04-20T16:46:51.320Z,5.22
2023-04-20T16:49:18.198Z,4.70
2023-04-20T16:51:44.938Z,5.00
2023-04-20T16:54:12.853Z,4.85
2023-04-20T16:56:40.109Z,5.03
2023-04-20T16:59:06.833Z,4.47
2023-04-20T17:01:33.740Z,5.22
2023-04-20T17:04:00.907Z,4.65
2023-04-20T17:06:27.970Z,4.35
2023-04-20T17:08:57.422Z,3.95
2023-04-20T17:11:24.317Z,4.57
2023-04-20T17:13:51.036Z,4.18
2023-04-20T17:16:17.610Z,3.40
2023-04-20T17:18:44.560Z,4.22
2023-04-20T17:21:11.110Z,4.35
2023-04-20T17:23:37.622Z,4.95
2023-04-20T17:26:04.400Z,4.40
2023-04-20T17:28:31.330Z,4.80
2023-04-20T17:30:58.212Z,4.10
2023-04-20T17:33:24.883Z,4.68
2023-04-20T17:35:51.542Z,4.40
2023-04-20T17:38:18.197Z,4.70
2023-04-20T17:40:44.812Z,4.10
2023-04-20T17:43:11.478Z,4.35
2023-04-20T17:45:38.167Z,3.65
2023-04-20T17:48:05.519Z,4.47
2023-04-20T17:50:32.968Z,3.92
2023-04-20T17:53:03.844Z,3.75
2023-04-20T17:55:30.456Z,4.73
2023-04-20T17:57:56.979Z,3.70
2023-04-20T18:00:23.958Z,3.88
2023-04-20T18:02:51.020Z,3.70
2023-04-20T18:05:18.170Z,3.70
2023-04-20T18:07:45.025Z,3.45
2023-04-20T18:10:13.521Z,4.28
2023-04-20T18:12:40.512Z,3.63
2023-04-20T18:15:08.449Z,4.22
2023-04-20T18:17:35.433Z,4.00
2023-04-20T18:20:02.019Z,3.40
2023-04-20T18:22:28.576Z,3.70
2023-04-20T18:24:55.343Z,3.85
2023-04-20T18:27:21.910Z,4.18
2023-04-20T18:29:49.495Z,3.72
2023-04-20T18:32:17.968Z,4.32
2023-04-20T18:34:44.690Z,4.82
2023-04-20T18:37:12.517Z,4.97
2023-04-20T18:39:40.140Z,3.50
2023-04-20T18:42:06.691Z,3.58
2023-04-20T18:44:33.537Z,3.22
2023-04-20T18:47:00.179Z,6.65
2023-04-20T18:49:26.909Z,5.47
2023-04-20T18:51:53.698Z,5.57
2023-04-20T18:54:20.306Z,4.72
2023-04-20T18:56:47.108Z,4.18
2023-04-20T18:59:13.949Z,3.78
2023-04-20T19:01:41.522Z,4.82
2023-04-20T19:04:09.053Z,5.03
2023-04-20T19:06:35.887Z,4.85
2023-04-20T19:09:02.636Z,4.57
2023-04-20T19:11:31.324Z,4.82
2023-04-20T19:13:58.076Z,4.07
2023-04-20T19:16:24.676Z,3.88
2023-04-20T19:18:51.474Z,4.07
2023-04-20T19:21:18.831Z,4.05
2023-04-20T19:23:47.520Z,4.20
2023-04-20T19:26:14.219Z,4.03
2023-04-20T19:28:40.758Z,4.40
2023-04-20T19:31:09.464Z,3.45
2023-04-20T19:33:36.237Z,3.70
2023-04-20T19:36:06.151Z,4.93
2023-04-20T19:38:34.746Z,3.50
2023-04-20T19:41:01.820Z,4.15
2023-04-20T19:43:28.380Z,4.20
2023-04-20T19:45:59.158Z,5.45
2023-04-20T19:48:25.955Z,4.63
2023-04-20T19:50:53.365Z,4.30
2023-04-20T19:53:19.916Z,3.58
2023-04-20T19:55:46.567Z,3.42
2023-04-20T19:58:13.423Z,3.67
2023-04-20T20:00:40.239Z,3.63
2023-04-20T20:03:10.492Z,3.58
2023-04-20T20:05:37.348Z,3.47
2023-04-20T20:08:04.369Z,3.97
2023-04-20T20:10:31.478Z,3.72
2023-04-20T20:12:58.150Z,3.78
2023-04-20T20:15:24.848Z,3.50
2023-04-20T20:17:55.224Z,3.97
2023-04-20T20:20:30.209Z,4.40
2023-04-20T20:22:56.992Z,4.40
2023-04-20T20:25:23.906Z,4.72
2023-04-20T20:27:51.089Z,3.88
2023-04-20T20:30:18.344Z,4.10
2023-04-20T20:32:45.061Z,5.25
2023-04-20T20:35:12.986Z,5.28
2023-04-20T20:37:40.618Z,5.45
2023-04-20T20:40:14.453Z,4.85
2023-04-20T20:42:45.110Z,5.75
2023-04-20T20:45:13.098Z,4.78
2023-04-20T20:47:41.313Z,4.43
2023-04-20T20:50:09.315Z,4.47
2023-04-20T20:52:36.046Z,5.15
2023-04-20T20:55:03.973Z,4.88
2023-04-20T20:57:31.016Z,3.95
2023-04-20T20:59:57.524Z,4.50
2023-04-20T21:02:24.431Z,5.00
2023-04-20T21:04:51.419Z,4.88
2023-04-20T21:07:18.206Z,5.55
2023-04-20T21:09:46.228Z,4.82
2023-04-20T21:12:12.817Z,5.35
2023-04-20T21:14:39.655Z,5.20
2023-04-20T21:17:06.275Z,6.05
2023-04-20T21:19:33.245Z,4.45
2023-04-20T21:21:59.943Z,5.15
2023-04-20T21:24:26.920Z,4.97
2023-04-20T21:26:53.604Z,5.00
2023-04-20T21:29:20.617Z,4.18
2023-04-20T21:31:47.615Z,5.68
2023-04-20T21:34:14.517Z,5.10
2023-04-20T21:36:41.196Z,5.35
2023-04-20T21:39:07.882Z,5.50
2023-04-20T21:41:34.835Z,5.13
2023-04-20T21:44:02.543Z,5.78
2023-04-20T21:46:29.590Z,7.32
2023-04-20T21:48:56.268Z,7.05
2023-04-20T21:51:23.006Z,6.38
2023-04-20T21:53:49.600Z,7.35
2023-04-20T21:56:18.227Z,6.53
2023-04-20T21:58:45.192Z,6.85
2023-04-20T22:01:11.787Z,7.38
2023-04-20T22:03:38.617Z,6.28
2023-04-20T22:06:06.445Z,6.43
2023-04-20T22:08:33.159Z,7.65
2023-04-20T22:10:59.926Z,7.60
2023-04-20T22:13:26.791Z,7.55
2023-04-20T22:15:53.468Z,7.75
2023-04-20T22:18:20.185Z,8.57
2023-04-20T22:20:46.961Z,8.05
2023-04-20T22:23:13.503Z,7.88
2023-04-20T22:25:40.967Z,8.45
2023-04-20T22:28:07.555Z,5.95
2023-04-20T22:30:35.708Z,7.85
2023-04-20T22:33:03.886Z,6.97
2023-04-20T22:35:30.719Z,7.90
2023-04-20T22:37:57.442Z,7.15
2023-04-20T22:40:24.298Z,7.82
2023-04-20T22:42:51.033Z,7.97
2023-04-20T22:45:19.745Z,8.07
2023-04-20T22:47:47.237Z,8.90
2023-04-20T22:50:13.986Z,8.93
2023-04-20T22:52:40.683Z,9.10
2023-04-20T22:55:08.962Z,8.73
2023-04-20T22:57:35.789Z,8.57
2023-04-20T23:00:06.345Z,8.38
2023-04-20T23:02:33.169Z,8.75
2023-04-20T23:04:59.955Z,8.57
2023-04-20T23:07:27.538Z,7.47
2023-04-20T23:09:56.370Z,7.82
2023-04-20T23:12:23.559Z,8.38
2023-04-20T23:14:50.833Z,8.73
2023-04-20T23:17:17.786Z,8.63
2023-04-20T23:19:44.628Z,9.32
2023-04-20T23:22:11.536Z,8.60
2023-04-20T23:24:38.474Z,8.88
2023-04-20T23:27:05.494Z,8.32
2023-04-20T23:29:33.028Z,8.05
2023-04-20T23:32:00.794Z,8.88
2023-04-20T23:34:27.416Z,8.38
2023-04-20T23:36:54.505Z,8.10
2023-04-20T23:39:21.702Z,8.13
2023-04-20T23:41:48.623Z,7.80
2023-04-20T23:44:15.380Z,7.68
2023-04-20T23:46:42.156Z,7.28
2023-04-20T23:49:08.971Z,6.95
2023-04-20T23:51:35.533Z,8.65
2023-04-20T23:54:02.234Z,7.50
2023-04-20T23:56:29.278Z,7.82
2023-04-20T23:58:56.029Z,7.30
